Flight Number: EUR2047 Duration: 6:00
Departure: Munich Int'l (EDDM) at 08:00 Distance: 2467 Nm
Arrival: Dubai Int'l (OMDB) at 14:00 Equipment: A340

Weather Information
Munchen, Germany (EDDM) 48-21N 011-47E Oct 19, 2018 - 02:50 PM EDT / 2018.10.19 1850 UTC
Wind: Calm:0
Visibility: 4 mile(s):0 Temperature: 46 F (8 C) Dew Point: 46 F (8 C) Relative Humidity: 100% Pressure (altimeter): 30.21 in. Hg (1023 hPa)
ob: EDDM 191850Z 00000KT 8000 NSC 08/08 Q1023 NOSIG cycle: 19
Sunrise: 05:42 Sunset: 16:12 (UTC)

Dubai International Airport, United Arab Emirates (OMDB) 25-15N 055-20E 5M Oct 19, 2018 - 02:00 PM EDT / 2018.10.19 1800 UTC
Wind: from the E (100 degrees) at 3 MPH (3 KT) (direction variable):0
Visibility: greater than 7 mile(s):0 Temperature: 87 F (31 C) Dew Point: 68 F (20 C) Relative Humidity: 52% Pressure (altimeter): 29.94 in. Hg (1014 hPa)
ob: OMDB 191800Z 10003KT 360V140 CAVOK 31/20 Q1014 NOSIG cycle: 18
Sunrise: 02:21 Sunset: 13:45 (UTC)

TAF:2018/10/19 18:03 TAF OMDB 191700Z 1918/2100 09005KT 8000 NSC BECMG 2009/2011 34013KT PROB30 TEMPO 2010/2015 VRB20G35KT 3000 BLDU FEW040TCU BECMG 2014/2016 09007KT

Previous Pireps for this route
Date Aircraft Flight time Fuel used Landing rate On time
2012-08-13A3405.45730000Yes
2012-10-06A34005.4895165-748Yes
2012-10-28A3406.001250000No
2012-12-08A34005.42149767-228Yes
2013-02-01A3405.301821000No
2013-02-28A3406.08100900No
2013-03-26A34005.2699508-228Yes
2013-04-08B73705.4731128-130Charter
2013-05-31A34006.06101633-552Yes
2014-04-01A34005.56102065-410Yes
2014-06-29A3405.44918400No
2015-01-31A34005.2286794-158No
2015-03-25B74705.39125580-261Charter
2015-05-01A34005.33120903-69Yes
2015-05-27B74705.59119407-102Charter
2015-08-06A34005.2682535-84Yes
2015-08-26A34005.2183745-190Yes
2016-06-08B77705.4990055-508.46Yes
2018-02-24B77705.55280469-484Charter
(pireps marked green are flown by you)

Route map